Country
Station

 

Weather  for  Fairbanks, Fairbanks International Airport  -  United States    United States

  
-32 °C (-26 °F)
    
 
 

Current METAR for Fairbanks, Fairbanks International Airport is :

PAFA 211753Z 00000KT 8SM -SN SCT004 BKN070 BKN170 M32/M35 A3000 RMK AO2 SLP177 -SN IC T13221350 11306 21344 56004

 

This is a report for Fairbanks, Fairbanks International Airport - United States.
 
The report was made 11 minutes ago, at 17:53 UTC .
The wind was calm.
 
The temperature was -32 °C (-26 °F), with a dew-point at -35 °C (-31 °F).
The atmospheric pressure was 1016 hPa (30.00 inHg).
The relative humidity was 74.4%.
 
There were scattered clouds at a height of 122 meters (400 feet), broken clouds at a height of 2134 meters (7000 feet) and broken clouds at a height of 5182 meters (17000 feet).
 
The overall visibility was 12.9 kilometers (8.0 miles).
 
Currently light snow.

 
 
 
 

Country :   A   B   C   D   E   F   G   H   I   J   K   L   M   N   O   P   Q   R   S   T   U   V   W   Y   Z

 

Site Info  |  Disclaimer  |  Credits  |  Privacy
Contact us  |  Add to favorites
© 2013-2018 METARs - All rights reserved